This is the latest recevied weather packets stored in our database for station/object KB3HLL. If no packets are shown the sender has not sent any weather packets the latest 10 day(s).
| Time | Temp. | Humidity | Pressure | Rain* | Wind** | Luminosity | Snow |
|---|---|---|---|---|---|---|---|
| 1777464977 | 8.33° C | 99% | 1013.8 hPa | 0 mm | - | 75 W/m² | - |
| 1777464678 | 8.33° C | 99% | 1013.7 hPa | 0 mm | - | 103 W/m² | - |
| 1777464380 | 8.33° C | 99% | 1014 hPa | 0 mm | - | 74 W/m² | - |
| 1777464078 | 8.33° C | 99% | 1013.9 hPa | 0 mm | - | 86 W/m² | - |
| 1777463778 | 8.33° C | 99% | 1014.2 hPa | 0 mm | - | 65 W/m² | - |
| 1777463478 | 8.33° C | 99% | 1014.3 hPa | 0 mm | - | 51 W/m² | - |
| 1777463178 | 8.33° C | 99% | 1014.2 hPa | 0 mm | - | 58 W/m² | - |
| 1777462878 | 8.33° C | 99% | 1014.3 hPa | 0 mm | - | 58 W/m² | - |
| 1777462579 | 8.33° C | 99% | 1014.4 hPa | 0 mm | - | 55 W/m² | - |
| 1777462277 | 8.33° C | 99% | 1014.7 hPa | 0 mm | - | 36 W/m² | - |
| 1777461978 | 8.33° C | 99% | 1014.8 hPa | 0 mm | - | 25 W/m² | - |
| 1777461677 | 8.33° C | 99% | 1014.9 hPa | 0 mm | - | 31 W/m² | - |
| 1777461377 | 8.33° C | 99% | 1014.7 hPa | 0 mm | - | 33 W/m² | - |
| 1777461077 | 8.33° C | 98% | 1014.6 hPa | 0 mm | - | 32 W/m² | - |
| 1777460778 | 8.33° C | 98% | 1014.5 hPa | 0 mm | - | 30 W/m² | - |
| 1777460479 | 8.33° C | 98% | 1014.7 hPa | 0 mm | - | 25 W/m² | - |
| 1777460179 | 8.33° C | 98% | 1014.7 hPa | 0 mm | - | 26 W/m² | - |
| 1777459878 | 8.33° C | 98% | 1014.7 hPa | 0 mm | - | 19 W/m² | - |
| 1777459298 | 8.33° C | 98% | 1014.6 hPa | 0 mm | - | 11 W/m² | - |
| 1777458978 | 8.33° C | 98% | 1014.6 hPa | 0 mm | - | 10 W/m² | - |
| 1777458678 | 8.33° C | 98% | 1014.5 hPa | 0 mm | - | 10 W/m² | - |
| 1777458379 | 8.33° C | 98% | 1014.6 hPa | 0 mm | - | 6 W/m² | - |
| 1777458077 | 8.33° C | 98% | 1014.5 hPa | 0 mm | - | 4 W/m² | - |
| 1777457778 | 8.33° C | 98% | 1014.4 hPa | 0 mm | - | 3 W/m² | - |
| 1777457478 | 8.33° C | 98% | 1014.4 hPa | 0 mm | - | 1 W/m² | - |
* Rain latest hour (hover to see other rain measurements)
** Current wind speed in m/s (hover to see current wind gust speed)